sensor_id;sensor_type;location;lat;lon;timestamp;pressure;altitude;pressure_sealevel;temperature;humidity
11676;BME280;5894;42.768;23.404;2023-01-16T00:01:03;95570.06;;;1.37;100.00
11676;BME280;5894;42.768;23.404;2023-01-16T00:03:30;95615.13;;;1.70;100.00
11676;BME280;5894;42.768;23.404;2023-01-16T00:05:57;95570.50;;;1.51;100.00
11676;BME280;5894;42.768;23.404;2023-01-16T00:08:23;95612.41;;;1.81;100.00
11676;BME280;5894;42.768;23.404;2023-01-16T00:10:50;95580.16;;;1.56;100.00
11676;BME280;5894;42.768;23.404;2023-01-16T00:13:17;95607.50;;;1.85;100.00
11676;BME280;5894;42.768;23.404;2023-01-16T00:15:45;95603.03;;;1.80;100.00
11676;BME280;5894;42.768;23.404;2023-01-16T00:18:13;95608.56;;;1.89;100.00
11676;BME280;5894;42.768;23.404;2023-01-16T00:20:40;95600.34;;;1.97;100.00
11676;BME280;5894;42.768;23.404;2023-01-16T00:23:07;95527.78;;;1.42;100.00
11676;BME280;5894;42.768;23.404;2023-01-16T00:25:38;95601.44;;;1.79;100.00
11676;BME280;5894;42.768;23.404;2023-01-16T00:28:05;95593.81;;;1.95;100.00
11676;BME280;5894;42.768;23.404;2023-01-16T00:30:32;95582.31;;;1.91;100.00
11676;BME280;5894;42.768;23.404;2023-01-16T00:32:58;95585.06;;;2.06;100.00
11676;BME280;5894;42.768;23.404;2023-01-16T00:35:27;95588.06;;;1.93;100.00
11676;BME280;5894;42.768;23.404;2023-01-16T00:37:53;95587.53;;;1.91;100.00
11676;BME280;5894;42.768;23.404;2023-01-16T00:40:20;95577.44;;;1.94;100.00
11676;BME280;5894;42.768;23.404;2023-01-16T00:42:47;95571.47;;;1.99;100.00
11676;BME280;5894;42.768;23.404;2023-01-16T00:45:14;95572.34;;;2.09;100.00
11676;BME280;5894;42.768;23.404;2023-01-16T00:47:41;95565.09;;;2.11;100.00
11676;BME280;5894;42.768;23.404;2023-01-16T00:50:08;95562.44;;;2.06;100.00
11676;BME280;5894;42.768;23.404;2023-01-16T00:52:37;95570.41;;;1.95;100.00
11676;BME280;5894;42.768;23.404;2023-01-16T00:55:04;95572.31;;;1.77;100.00
11676;BME280;5894;42.768;23.404;2023-01-16T00:57:31;95566.75;;;1.69;100.00
11676;BME280;5894;42.768;23.404;2023-01-16T00:59:58;95560.81;;;1.46;100.00
11676;BME280;5894;42.768;23.404;2023-01-16T01:02:24;95562.78;;;1.61;100.00
11676;BME280;5894;42.768;23.404;2023-01-16T01:04:51;95536.56;;;1.63;100.00
11676;BME280;5894;42.768;23.404;2023-01-16T01:07:18;95557.31;;;1.84;100.00
11676;BME280;5894;42.768;23.404;2023-01-16T01:09:46;95558.88;;;1.86;100.00
11676;BME280;5894;42.768;23.404;2023-01-16T01:12:13;95519.28;;;1.52;100.00
11676;BME280;5894;42.768;23.404;2023-01-16T01:14:40;95569.28;;;1.86;100.00
11676;BME280;5894;42.768;23.404;2023-01-16T01:17:06;95533.66;;;1.59;100.00
11676;BME280;5894;42.768;23.404;2023-01-16T01:19:33;95550.47;;;1.78;100.00
11676;BME280;5894;42.768;23.404;2023-01-16T01:22:00;95564.81;;;1.81;100.00
11676;BME280;5894;42.768;23.404;2023-01-16T01:24:27;95558.81;;;1.80;100.00
11676;BME280;5894;42.768;23.404;2023-01-16T01:26:55;95562.97;;;1.76;100.00
11676;BME280;5894;42.768;23.404;2023-01-16T01:29:22;95563.56;;;1.89;100.00
11676;BME280;5894;42.768;23.404;2023-01-16T01:31:49;95538.88;;;1.86;100.00
11676;BME280;5894;42.768;23.404;2023-01-16T01:34:15;95552.16;;;1.90;100.00
11676;BME280;5894;42.768;23.404;2023-01-16T01:36:42;95538.97;;;1.69;100.00
11676;BME280;5894;42.768;23.404;2023-01-16T01:39:09;95541.41;;;1.81;100.00
11676;BME280;5894;42.768;23.404;2023-01-16T01:41:36;95539.91;;;1.85;100.00
11676;BME280;5894;42.768;23.404;2023-01-16T01:47:04;95530.22;;;1.80;100.00
11676;BME280;5894;42.768;23.404;2023-01-16T01:49:31;95526.94;;;1.90;100.00
11676;BME280;5894;42.768;23.404;2023-01-16T01:52:00;95538.69;;;1.66;100.00
11676;BME280;5894;42.768;23.404;2023-01-16T01:54:32;95540.97;;;1.62;100.00
11676;BME280;5894;42.768;23.404;2023-01-16T01:57:03;95491.94;;;1.44;100.00
11676;BME280;5894;42.768;23.404;2023-01-16T01:59:33;95528.94;;;1.56;100.00
11676;BME280;5894;42.768;23.404;2023-01-16T02:02:04;95466.56;;;1.02;100.00
11676;BME280;5894;42.768;23.404;2023-01-16T02:04:35;95478.56;;;1.08;100.00
11676;BME280;5894;42.768;23.404;2023-01-16T02:07:06;95529.16;;;1.50;100.00
11676;BME280;5894;42.768;23.404;2023-01-16T02:09:34;95525.81;;;1.54;100.00
11676;BME280;5894;42.768;23.404;2023-01-16T02:12:05;95508.47;;;1.33;100.00
11676;BME280;5894;42.768;23.404;2023-01-16T02:14:35;95486.00;;;1.48;100.00
11676;BME280;5894;42.768;23.404;2023-01-16T02:17:06;95499.69;;;1.66;100.00
11676;BME280;5894;42.768;23.404;2023-01-16T02:19:54;95503.84;;;1.40;100.00
11676;BME280;5894;42.768;23.404;2023-01-16T02:22:45;95504.31;;;1.37;100.00
11676;BME280;5894;42.768;23.404;2023-01-16T02:25:48;95504.00;;;1.55;100.00
11676;BME280;5894;42.768;23.404;2023-01-16T02:31:32;95492.47;;;1.19;100.00
11676;BME280;5894;42.768;23.404;2023-01-16T02:34:19;95477.56;;;1.09;100.00
11676;BME280;5894;42.768;23.404;2023-01-16T02:36:58;95486.47;;;1.19;100.00
11676;BME280;5894;42.768;23.404;2023-01-16T02:39:35;95490.41;;;1.21;100.00
11676;BME280;5894;42.768;23.404;2023-01-16T02:42:10;95496.72;;;1.30;100.00
11676;BME280;5894;42.768;23.404;2023-01-16T02:44:45;95500.66;;;1.33;100.00
11676;BME280;5894;42.768;23.404;2023-01-16T02:47:23;95493.66;;;1.33;100.00
11676;BME280;5894;42.768;23.404;2023-01-16T02:49:59;95490.84;;;1.40;100.00
11676;BME280;5894;42.768;23.404;2023-01-16T02:52:31;95473.69;;;1.12;100.00
11676;BME280;5894;42.768;23.404;2023-01-16T02:55:03;95497.06;;;1.39;100.00
11676;BME280;5894;42.768;23.404;2023-01-16T02:57:34;95494.69;;;1.32;100.00
11676;BME280;5894;42.768;23.404;2023-01-16T03:00:03;95484.97;;;1.23;100.00
11676;BME280;5894;42.768;23.404;2023-01-16T03:02:32;95480.94;;;1.10;100.00
11676;BME280;5894;42.768;23.404;2023-01-16T03:04:59;95475.00;;;1.15;100.00
11676;BME280;5894;42.768;23.404;2023-01-16T03:07:54;95472.13;;;1.11;100.00
11676;BME280;5894;42.768;23.404;2023-01-16T03:13:36;95468.06;;;1.20;100.00
11676;BME280;5894;42.768;23.404;2023-01-16T03:16:14;95455.06;;;1.20;100.00
11676;BME280;5894;42.768;23.404;2023-01-16T03:18:53;95433.41;;;1.09;100.00
11676;BME280;5894;42.768;23.404;2023-01-16T03:21:36;95414.81;;;0.96;100.00
11676;BME280;5894;42.768;23.404;2023-01-16T03:24:10;95444.28;;;1.33;100.00
11676;BME280;5894;42.768;23.404;2023-01-16T03:26:43;95445.47;;;1.21;100.00
11676;BME280;5894;42.768;23.404;2023-01-16T03:29:16;95438.22;;;1.23;100.00
11676;BME280;5894;42.768;23.404;2023-01-16T03:31:48;95407.09;;;1.01;100.00
11676;BME280;5894;42.768;23.404;2023-01-16T03:34:24;95453.00;;;1.22;100.00
11676;BME280;5894;42.768;23.404;2023-01-16T03:36:56;95442.66;;;1.27;100.00
11676;BME280;5894;42.768;23.404;2023-01-16T03:39:28;95443.53;;;1.38;100.00
11676;BME280;5894;42.768;23.404;2023-01-16T03:42:00;95435.72;;;1.33;100.00
11676;BME280;5894;42.768;23.404;2023-01-16T03:44:32;95420.22;;;1.16;100.00
11676;BME280;5894;42.768;23.404;2023-01-16T03:47:02;95414.34;;;0.99;100.00
11676;BME280;5894;42.768;23.404;2023-01-16T03:49:35;95415.66;;;1.01;100.00
11676;BME280;5894;42.768;23.404;2023-01-16T03:52:06;95414.00;;;1.17;100.00
11676;BME280;5894;42.768;23.404;2023-01-16T03:54:42;95406.50;;;1.21;100.00
11676;BME280;5894;42.768;23.404;2023-01-16T03:57:14;95371.97;;;0.93;100.00
11676;BME280;5894;42.768;23.404;2023-01-16T03:59:45;95403.84;;;1.16;100.00
11676;BME280;5894;42.768;23.404;2023-01-16T04:02:17;95402.25;;;1.09;100.00
11676;BME280;5894;42.768;23.404;2023-01-16T04:04:50;95403.47;;;1.02;100.00
11676;BME280;5894;42.768;23.404;2023-01-16T04:07:23;95401.69;;;1.07;100.00
11676;BME280;5894;42.768;23.404;2023-01-16T04:09:55;95402.19;;;1.04;100.00
11676;BME280;5894;42.768;23.404;2023-01-16T04:12:26;95395.91;;;1.00;100.00
11676;BME280;5894;42.768;23.404;2023-01-16T04:14:57;95413.34;;;1.05;100.00
11676;BME280;5894;42.768;23.404;2023-01-16T04:17:26;95391.75;;;0.99;100.00
11676;BME280;5894;42.768;23.404;2023-01-16T04:19:55;95387.69;;;0.82;100.00
11676;BME280;5894;42.768;23.404;2023-01-16T04:22:23;95408.13;;;1.00;100.00
11676;BME280;5894;42.768;23.404;2023-01-16T04:24:52;95407.00;;;0.91;100.00
11676;BME280;5894;42.768;23.404;2023-01-16T04:27:20;95372.63;;;0.57;100.00
11676;BME280;5894;42.768;23.404;2023-01-16T04:29:47;95400.56;;;0.98;100.00
11676;BME280;5894;42.768;23.404;2023-01-16T04:32:14;95394.94;;;1.06;100.00
11676;BME280;5894;42.768;23.404;2023-01-16T04:34:41;95396.97;;;1.04;100.00
11676;BME280;5894;42.768;23.404;2023-01-16T04:37:11;95375.53;;;0.87;100.00
11676;BME280;5894;42.768;23.404;2023-01-16T04:39:38;95386.13;;;1.07;100.00
11676;BME280;5894;42.768;23.404;2023-01-16T04:42:06;95389.25;;;1.09;100.00
11676;BME280;5894;42.768;23.404;2023-01-16T04:44:33;95383.50;;;1.07;100.00
11676;BME280;5894;42.768;23.404;2023-01-16T04:47:00;95386.19;;;1.13;100.00
11676;BME280;5894;42.768;23.404;2023-01-16T04:49:27;95376.06;;;1.16;100.00
11676;BME280;5894;42.768;23.404;2023-01-16T04:51:54;95263.19;;;0.38;100.00
11676;BME280;5894;42.768;23.404;2023-01-16T04:54:22;95368.72;;;1.08;100.00
11676;BME280;5894;42.768;23.404;2023-01-16T04:56:49;95379.97;;;1.14;100.00
11676;BME280;5894;42.768;23.404;2023-01-16T04:59:16;95376.81;;;1.12;100.00
11676;BME280;5894;42.768;23.404;2023-01-16T05:01:44;95378.13;;;1.14;100.00
11676;BME280;5894;42.768;23.404;2023-01-16T05:04:12;95316.47;;;0.72;100.00
11676;BME280;5894;42.768;23.404;2023-01-16T05:06:40;95348.00;;;0.86;100.00
11676;BME280;5894;42.768;23.404;2023-01-16T05:09:07;95384.06;;;1.09;100.00
11676;BME280;5894;42.768;23.404;2023-01-16T05:11:35;95372.81;;;1.04;100.00
11676;BME280;5894;42.768;23.404;2023-01-16T05:14:02;95324.19;;;0.67;100.00
11676;BME280;5894;42.768;23.404;2023-01-16T05:16:30;95342.22;;;0.79;100.00
11676;BME280;5894;42.768;23.404;2023-01-16T05:18:57;95343.50;;;0.77;100.00
11676;BME280;5894;42.768;23.404;2023-01-16T05:21:24;95302.06;;;0.60;100.00
11676;BME280;5894;42.768;23.404;2023-01-16T05:23:51;95353.09;;;1.03;100.00
11676;BME280;5894;42.768;23.404;2023-01-16T05:26:18;95355.72;;;1.08;100.00
11676;BME280;5894;42.768;23.404;2023-01-16T05:28:46;95338.72;;;0.95;100.00
11676;BME280;5894;42.768;23.404;2023-01-16T05:31:13;95355.84;;;0.91;100.00
11676;BME280;5894;42.768;23.404;2023-01-16T05:33:39;95365.72;;;0.94;100.00
11676;BME280;5894;42.768;23.404;2023-01-16T05:36:07;95349.34;;;0.89;100.00
11676;BME280;5894;42.768;23.404;2023-01-16T05:38:34;95286.16;;;0.51;100.00
11676;BME280;5894;42.768;23.404;2023-01-16T05:41:01;95333.06;;;0.98;100.00
11676;BME280;5894;42.768;23.404;2023-01-16T05:43:27;95340.63;;;1.05;100.00
11676;BME280;5894;42.768;23.404;2023-01-16T05:45:55;95331.25;;;0.99;100.00
11676;BME280;5894;42.768;23.404;2023-01-16T05:48:22;95300.63;;;0.74;100.00
11676;BME280;5894;42.768;23.404;2023-01-16T05:50:49;95343.41;;;0.93;100.00
11676;BME280;5894;42.768;23.404;2023-01-16T05:53:16;95267.91;;;0.41;100.00
11676;BME280;5894;42.768;23.404;2023-01-16T05:55:44;95323.97;;;0.69;100.00
11676;BME280;5894;42.768;23.404;2023-01-16T05:58:12;95334.78;;;0.88;100.00
11676;BME280;5894;42.768;23.404;2023-01-16T06:00:40;95352.72;;;0.89;100.00
11676;BME280;5894;42.768;23.404;2023-01-16T06:03:08;95349.03;;;0.85;100.00
11676;BME280;5894;42.768;23.404;2023-01-16T06:05:35;95321.16;;;0.76;100.00
11676;BME280;5894;42.768;23.404;2023-01-16T06:08:02;95345.41;;;0.86;100.00
11676;BME280;5894;42.768;23.404;2023-01-16T06:10:30;95291.41;;;0.56;100.00
11676;BME280;5894;42.768;23.404;2023-01-16T06:12:57;95334.53;;;0.89;100.00
11676;BME280;5894;42.768;23.404;2023-01-16T06:15:24;95303.97;;;0.69;100.00
11676;BME280;5894;42.768;23.404;2023-01-16T06:17:50;95328.41;;;1.00;100.00
11676;BME280;5894;42.768;23.404;2023-01-16T06:20:20;95329.75;;;1.03;100.00
11676;BME280;5894;42.768;23.404;2023-01-16T06:22:47;95333.38;;;1.02;100.00
11676;BME280;5894;42.768;23.404;2023-01-16T06:25:14;95306.19;;;0.83;100.00
11676;BME280;5894;42.768;23.404;2023-01-16T06:27:41;95328.09;;;0.97;100.00
11676;BME280;5894;42.768;23.404;2023-01-16T06:30:09;95334.28;;;0.91;100.00
11676;BME280;5894;42.768;23.404;2023-01-16T06:32:35;95328.25;;;0.85;100.00
11676;BME280;5894;42.768;23.404;2023-01-16T06:35:09;95283.38;;;0.58;100.00
11676;BME280;5894;42.768;23.404;2023-01-16T06:37:42;95340.50;;;0.90;100.00
11676;BME280;5894;42.768;23.404;2023-01-16T06:40:10;95294.78;;;0.57;100.00
11676;BME280;5894;42.768;23.404;2023-01-16T06:42:43;95346.44;;;0.85;100.00
11676;BME280;5894;42.768;23.404;2023-01-16T06:45:10;95325.72;;;0.63;100.00
11676;BME280;5894;42.768;23.404;2023-01-16T06:47:37;95326.50;;;0.64;100.00
11676;BME280;5894;42.768;23.404;2023-01-16T06:50:04;95334.91;;;0.76;100.00
11676;BME280;5894;42.768;23.404;2023-01-16T06:52:31;95339.44;;;0.86;100.00
11676;BME280;5894;42.768;23.404;2023-01-16T06:55:01;95313.47;;;0.86;100.00
11676;BME280;5894;42.768;23.404;2023-01-16T06:57:28;95311.34;;;1.09;100.00
11676;BME280;5894;42.768;23.404;2023-01-16T06:59:55;95233.06;;;0.64;100.00
11676;BME280;5894;42.768;23.404;2023-01-16T07:02:22;95274.38;;;0.97;100.00
11676;BME280;5894;42.768;23.404;2023-01-16T07:04:49;95314.09;;;1.30;100.00
11676;BME280;5894;42.768;23.404;2023-01-16T07:07:15;95296.94;;;1.24;100.00
11676;BME280;5894;42.768;23.404;2023-01-16T07:09:42;95325.66;;;1.44;100.00
11676;BME280;5894;42.768;23.404;2023-01-16T07:12:10;95311.88;;;1.48;100.00
11676;BME280;5894;42.768;23.404;2023-01-16T07:14:37;95309.91;;;1.61;100.00
11676;BME280;5894;42.768;23.404;2023-01-16T07:17:21;95308.88;;;1.67;100.00
11676;BME280;5894;42.768;23.404;2023-01-16T07:20:09;95271.88;;;1.50;100.00
11676;BME280;5894;42.768;23.404;2023-01-16T07:22:53;95301.31;;;1.60;100.00
11676;BME280;5894;42.768;23.404;2023-01-16T07:25:24;95317.56;;;1.82;100.00
11676;BME280;5894;42.768;23.404;2023-01-16T07:27:54;95260.50;;;1.56;100.00
11676;BME280;5894;42.768;23.404;2023-01-16T07:30:21;95316.59;;;1.99;100.00
11676;BME280;5894;42.768;23.404;2023-01-16T07:32:48;95305.44;;;2.03;100.00
11676;BME280;5894;42.768;23.404;2023-01-16T07:35:15;95300.47;;;1.97;100.00
11676;BME280;5894;42.768;23.404;2023-01-16T07:37:42;95312.75;;;2.11;100.00
11676;BME280;5894;42.768;23.404;2023-01-16T07:40:12;95302.59;;;2.05;100.00
11676;BME280;5894;42.768;23.404;2023-01-16T07:42:39;95309.13;;;2.07;100.00
11676;BME280;5894;42.768;23.404;2023-01-16T07:45:08;95292.66;;;1.92;100.00
11676;BME280;5894;42.768;23.404;2023-01-16T07:47:34;95306.25;;;2.09;100.00
11676;BME280;5894;42.768;23.404;2023-01-16T07:50:01;95301.56;;;2.06;100.00
11676;BME280;5894;42.768;23.404;2023-01-16T07:52:28;95304.94;;;2.06;100.00
11676;BME280;5894;42.768;23.404;2023-01-16T07:54:55;95269.47;;;1.85;100.00
11676;BME280;5894;42.768;23.404;2023-01-16T07:57:22;95306.03;;;2.20;100.00
11676;BME280;5894;42.768;23.404;2023-01-16T07:59:50;95304.22;;;2.16;100.00
11676;BME280;5894;42.768;23.404;2023-01-16T08:02:18;95283.88;;;2.08;100.00
11676;BME280;5894;42.768;23.404;2023-01-16T08:04:45;95239.78;;;1.71;100.00
11676;BME280;5894;42.768;23.404;2023-01-16T08:07:12;95261.72;;;2.00;100.00
11676;BME280;5894;42.768;23.404;2023-01-16T08:09:38;95260.44;;;2.08;100.00
11676;BME280;5894;42.768;23.404;2023-01-16T08:12:05;95255.00;;;2.04;100.00
11676;BME280;5894;42.768;23.404;2023-01-16T08:14:32;95230.75;;;1.89;100.00
11676;BME280;5894;42.768;23.404;2023-01-16T08:16:59;95275.59;;;2.16;100.00
11676;BME280;5894;42.768;23.404;2023-01-16T08:19:27;95256.31;;;2.07;100.00
11676;BME280;5894;42.768;23.404;2023-01-16T08:21:54;95240.13;;;1.95;100.00
11676;BME280;5894;42.768;23.404;2023-01-16T08:24:21;95271.72;;;2.24;100.00
11676;BME280;5894;42.768;23.404;2023-01-16T08:26:49;95266.22;;;2.15;100.00
11676;BME280;5894;42.768;23.404;2023-01-16T08:29:16;95273.84;;;2.37;100.00
11676;BME280;5894;42.768;23.404;2023-01-16T08:31:42;95232.13;;;2.11;100.00
11676;BME280;5894;42.768;23.404;2023-01-16T08:34:09;95260.31;;;2.45;100.00
11676;BME280;5894;42.768;23.404;2023-01-16T08:36:37;95240.00;;;2.42;100.00
11676;BME280;5894;42.768;23.404;2023-01-16T08:39:04;95248.63;;;2.63;100.00
11676;BME280;5894;42.768;23.404;2023-01-16T08:41:31;95257.50;;;2.77;100.00
11676;BME280;5894;42.768;23.404;2023-01-16T08:44:16;95254.91;;;2.82;100.00
11676;BME280;5894;42.768;23.404;2023-01-16T08:47:03;95238.50;;;2.91;100.00
11676;BME280;5894;42.768;23.404;2023-01-16T08:49:48;95227.28;;;2.91;100.00
11676;BME280;5894;42.768;23.404;2023-01-16T08:52:35;95170.03;;;2.66;100.00
11676;BME280;5894;42.768;23.404;2023-01-16T08:55:03;95236.16;;;3.05;100.00
11676;BME280;5894;42.768;23.404;2023-01-16T08:57:30;95234.34;;;3.11;100.00
11676;BME280;5894;42.768;23.404;2023-01-16T08:59:57;95228.59;;;3.19;100.00
11676;BME280;5894;42.768;23.404;2023-01-16T09:02:25;95229.63;;;3.13;100.00
11676;BME280;5894;42.768;23.404;2023-01-16T09:04:53;95204.38;;;3.08;100.00
11676;BME280;5894;42.768;23.404;2023-01-16T09:07:21;95226.50;;;3.26;100.00
11676;BME280;5894;42.768;23.404;2023-01-16T09:09:49;95239.00;;;3.29;100.00
11676;BME280;5894;42.768;23.404;2023-01-16T09:12:17;95216.56;;;3.33;100.00
11676;BME280;5894;42.768;23.404;2023-01-16T09:15:02;95200.47;;;3.06;100.00
11676;BME280;5894;42.768;23.404;2023-01-16T09:17:29;95196.75;;;3.37;100.00
11676;BME280;5894;42.768;23.404;2023-01-16T09:19:56;95210.78;;;3.56;100.00
11676;BME280;5894;42.768;23.404;2023-01-16T09:22:24;95153.00;;;3.24;100.00
11676;BME280;5894;42.768;23.404;2023-01-16T09:24:53;95196.16;;;3.65;100.00
11676;BME280;5894;42.768;23.404;2023-01-16T09:27:20;95182.59;;;3.63;100.00
11676;BME280;5894;42.768;23.404;2023-01-16T09:29:49;95191.69;;;3.76;100.00
11676;BME280;5894;42.768;23.404;2023-01-16T09:32:17;95190.41;;;3.74;100.00
11676;BME280;5894;42.768;23.404;2023-01-16T09:34:44;95184.38;;;3.83;100.00
11676;BME280;5894;42.768;23.404;2023-01-16T09:37:11;95170.28;;;3.79;100.00
11676;BME280;5894;42.768;23.404;2023-01-16T09:39:38;95115.94;;;3.52;100.00
11676;BME280;5894;42.768;23.404;2023-01-16T09:42:40;95162.16;;;3.91;100.00
11676;BME280;5894;42.768;23.404;2023-01-16T09:45:32;95164.50;;;3.92;100.00
11676;BME280;5894;42.768;23.404;2023-01-16T09:48:03;95151.16;;;3.99;100.00
11676;BME280;5894;42.768;23.404;2023-01-16T09:50:36;95154.22;;;4.11;100.00
11676;BME280;5894;42.768;23.404;2023-01-16T09:53:10;95141.47;;;4.04;100.00
11676;BME280;5894;42.768;23.404;2023-01-16T09:55:57;95149.22;;;4.20;100.00
11676;BME280;5894;42.768;23.404;2023-01-16T09:58:48;95059.78;;;3.65;100.00
11676;BME280;5894;42.768;23.404;2023-01-16T10:01:20;95155.94;;;4.31;100.00
11676;BME280;5894;42.768;23.404;2023-01-16T10:03:47;95140.00;;;4.27;100.00
11676;BME280;5894;42.768;23.404;2023-01-16T10:06:20;95152.19;;;4.42;100.00
11676;BME280;5894;42.768;23.404;2023-01-16T10:09:02;95100.84;;;4.32;100.00
11676;BME280;5894;42.768;23.404;2023-01-16T10:11:37;95080.94;;;4.36;100.00
11676;BME280;5894;42.768;23.404;2023-01-16T10:14:16;95126.63;;;4.73;100.00
11676;BME280;5894;42.768;23.404;2023-01-16T10:16:56;95114.06;;;4.75;100.00
11676;BME280;5894;42.768;23.404;2023-01-16T10:19:36;95107.13;;;4.89;100.00
11676;BME280;5894;42.768;23.404;2023-01-16T10:22:20;95102.69;;;4.90;100.00
11676;BME280;5894;42.768;23.404;2023-01-16T10:25:01;95081.78;;;4.90;100.00
11676;BME280;5894;42.768;23.404;2023-01-16T10:27:38;95099.94;;;5.05;100.00
11676;BME280;5894;42.768;23.404;2023-01-16T10:30:14;95099.28;;;5.18;100.00
11676;BME280;5894;42.768;23.404;2023-01-16T10:32:45;95086.56;;;5.30;100.00
11676;BME280;5894;42.768;23.404;2023-01-16T10:35:17;95088.47;;;5.25;100.00
11676;BME280;5894;42.768;23.404;2023-01-16T10:37:47;95089.00;;;5.27;100.00
11676;BME280;5894;42.768;23.404;2023-01-16T10:40:16;95078.75;;;5.30;100.00
11676;BME280;5894;42.768;23.404;2023-01-16T10:42:48;95068.50;;;5.34;100.00
11676;BME280;5894;42.768;23.404;2023-01-16T10:45:39;95069.72;;;5.41;100.00
11676;BME280;5894;42.768;23.404;2023-01-16T10:48:30;95058.97;;;5.43;100.00
11676;BME280;5894;42.768;23.404;2023-01-16T10:51:14;95064.00;;;5.39;100.00
11676;BME280;5894;42.768;23.404;2023-01-16T10:53:42;95038.63;;;5.40;100.00
11676;BME280;5894;42.768;23.404;2023-01-16T10:56:09;95045.00;;;5.52;100.00
11676;BME280;5894;42.768;23.404;2023-01-16T10:58:37;95021.81;;;5.46;100.00
11676;BME280;5894;42.768;23.404;2023-01-16T11:01:13;95032.38;;;5.60;100.00
11676;BME280;5894;42.768;23.404;2023-01-16T11:03:41;95018.34;;;5.50;100.00
11676;BME280;5894;42.768;23.404;2023-01-16T11:06:14;95013.56;;;5.39;100.00
11676;BME280;5894;42.768;23.404;2023-01-16T11:08:43;95004.84;;;5.43;100.00
11676;BME280;5894;42.768;23.404;2023-01-16T11:11:12;94989.94;;;5.44;100.00
11676;BME280;5894;42.768;23.404;2023-01-16T11:13:58;94967.59;;;5.33;100.00
11676;BME280;5894;42.768;23.404;2023-01-16T11:16:47;94884.09;;;4.85;100.00
11676;BME280;5894;42.768;23.404;2023-01-16T11:19:40;94958.00;;;5.28;100.00
11676;BME280;5894;42.768;23.404;2023-01-16T11:22:22;94977.50;;;5.54;100.00
11676;BME280;5894;42.768;23.404;2023-01-16T11:24:53;94967.03;;;5.54;100.00
11676;BME280;5894;42.768;23.404;2023-01-16T11:27:23;94961.41;;;5.47;100.00
11676;BME280;5894;42.768;23.404;2023-01-16T11:29:53;94964.78;;;5.48;100.00
11676;BME280;5894;42.768;23.404;2023-01-16T11:32:22;94934.66;;;5.32;100.00
11676;BME280;5894;42.768;23.404;2023-01-16T11:34:53;94931.63;;;5.43;100.00
11676;BME280;5894;42.768;23.404;2023-01-16T11:37:21;94952.41;;;5.53;100.00
11676;BME280;5894;42.768;23.404;2023-01-16T11:39:51;94960.47;;;5.57;100.00
11676;BME280;5894;42.768;23.404;2023-01-16T11:42:19;94966.13;;;5.64;100.00
11676;BME280;5894;42.768;23.404;2023-01-16T11:45:13;94955.25;;;5.57;100.00
11676;BME280;5894;42.768;23.404;2023-01-16T11:48:00;94919.13;;;5.40;100.00
11676;BME280;5894;42.768;23.404;2023-01-16T11:50:49;94954.31;;;5.67;100.00
11676;BME280;5894;42.768;23.404;2023-01-16T11:53:16;94941.88;;;5.59;100.00
11676;BME280;5894;42.768;23.404;2023-01-16T11:55:55;94937.97;;;5.75;100.00
11676;BME280;5894;42.768;23.404;2023-01-16T11:58:35;94915.56;;;5.69;100.00
11676;BME280;5894;42.768;23.404;2023-01-16T12:01:11;94918.22;;;5.82;100.00
11676;BME280;5894;42.768;23.404;2023-01-16T12:03:56;94884.38;;;5.72;100.00
11676;BME280;5894;42.768;23.404;2023-01-16T12:06:39;94895.22;;;5.66;100.00
11676;BME280;5894;42.768;23.404;2023-01-16T12:09:19;94881.13;;;5.62;100.00
11676;BME280;5894;42.768;23.404;2023-01-16T12:15:13;94899.56;;;5.89;100.00
11676;BME280;5894;42.768;23.404;2023-01-16T12:17:58;94905.88;;;5.88;100.00
11676;BME280;5894;42.768;23.404;2023-01-16T12:20:33;94806.16;;;5.25;100.00
11676;BME280;5894;42.768;23.404;2023-01-16T12:23:19;94901.41;;;5.88;100.00
11676;BME280;5894;42.768;23.404;2023-01-16T12:25:56;94902.88;;;5.76;100.00
11676;BME280;5894;42.768;23.404;2023-01-16T12:28:31;94897.88;;;5.79;100.00
11676;BME280;5894;42.768;23.404;2023-01-16T12:31:23;94896.31;;;5.78;100.00
11676;BME280;5894;42.768;23.404;2023-01-16T12:37:09;94877.59;;;5.90;100.00
11676;BME280;5894;42.768;23.404;2023-01-16T12:39:45;94869.28;;;5.83;100.00
11676;BME280;5894;42.768;23.404;2023-01-16T12:42:23;94872.06;;;6.05;100.00
11676;BME280;5894;42.768;23.404;2023-01-16T12:45:21;94878.47;;;5.99;100.00
11676;BME280;5894;42.768;23.404;2023-01-16T12:47:57;94870.19;;;5.92;100.00
11676;BME280;5894;42.768;23.404;2023-01-16T12:50:43;94851.81;;;5.97;100.00
11676;BME280;5894;42.768;23.404;2023-01-16T12:56:27;94815.75;;;5.62;100.00
11676;BME280;5894;42.768;23.404;2023-01-16T12:58:59;94830.41;;;5.76;100.00
11676;BME280;5894;42.768;23.404;2023-01-16T13:01:30;94857.91;;;6.06;100.00
11676;BME280;5894;42.768;23.404;2023-01-16T13:04:10;94841.72;;;6.04;100.00
11676;BME280;5894;42.768;23.404;2023-01-16T13:06:42;94840.94;;;6.04;100.00
11676;BME280;5894;42.768;23.404;2023-01-16T13:09:16;94834.94;;;6.03;100.00
11676;BME280;5894;42.768;23.404;2023-01-16T13:11:57;94832.03;;;6.05;100.00
11676;BME280;5894;42.768;23.404;2023-01-16T13:14:46;94809.47;;;6.09;100.00
11676;BME280;5894;42.768;23.404;2023-01-16T13:17:17;94764.91;;;5.81;100.00
11676;BME280;5894;42.768;23.404;2023-01-16T13:19:46;94807.59;;;5.96;100.00
11676;BME280;5894;42.768;23.404;2023-01-16T13:22:20;94807.25;;;5.83;100.00
11676;BME280;5894;42.768;23.404;2023-01-16T13:24:54;94797.56;;;5.84;100.00
11676;BME280;5894;42.768;23.404;2023-01-16T13:27:30;94791.00;;;5.86;100.00
11676;BME280;5894;42.768;23.404;2023-01-16T13:30:02;94808.25;;;5.87;100.00
11676;BME280;5894;42.768;23.404;2023-01-16T13:32:32;94794.34;;;5.73;100.00
11676;BME280;5894;42.768;23.404;2023-01-16T13:35:04;94799.22;;;5.66;100.00
11676;BME280;5894;42.768;23.404;2023-01-16T13:37:56;94815.50;;;5.77;100.00
11676;BME280;5894;42.768;23.404;2023-01-16T13:40:37;94805.41;;;5.70;100.00
11676;BME280;5894;42.768;23.404;2023-01-16T13:43:16;94769.47;;;5.30;100.00